sensor_id;sensor_type;location;lat;lon;timestamp;P1;durP1;ratioP1;P2;durP2;ratioP2
65045;SDS011;54657;52.022;5.534;2023-02-15T00:00:53;22.30;;;13.77;;
65045;SDS011;54657;52.022;5.534;2023-02-15T00:03:21;22.55;;;12.93;;
65045;SDS011;54657;52.022;5.534;2023-02-15T00:05:47;24.45;;;13.68;;
65045;SDS011;54657;52.022;5.534;2023-02-15T00:08:12;24.83;;;13.88;;
65045;SDS011;54657;52.022;5.534;2023-02-15T00:10:38;22.02;;;14.55;;
65045;SDS011;54657;52.022;5.534;2023-02-15T00:13:04;24.90;;;13.60;;
65045;SDS011;54657;52.022;5.534;2023-02-15T00:15:29;22.33;;;14.27;;
65045;SDS011;54657;52.022;5.534;2023-02-15T00:17:56;23.88;;;14.70;;
65045;SDS011;54657;52.022;5.534;2023-02-15T00:20:22;21.67;;;13.23;;
65045;SDS011;54657;52.022;5.534;2023-02-15T00:22:47;21.40;;;13.65;;
65045;SDS011;54657;52.022;5.534;2023-02-15T00:25:13;23.02;;;13.77;;
65045;SDS011;54657;52.022;5.534;2023-02-15T00:27:38;20.55;;;12.57;;
65045;SDS011;54657;52.022;5.534;2023-02-15T00:30:04;25.48;;;13.50;;
65045;SDS011;54657;52.022;5.534;2023-02-15T00:32:30;21.52;;;13.05;;
65045;SDS011;54657;52.022;5.534;2023-02-15T00:34:56;20.33;;;12.63;;
65045;SDS011;54657;52.022;5.534;2023-02-15T00:37:22;22.52;;;12.95;;
65045;SDS011;54657;52.022;5.534;2023-02-15T00:39:47;23.48;;;13.70;;
65045;SDS011;54657;52.022;5.534;2023-02-15T00:42:13;20.90;;;14.05;;
65045;SDS011;54657;52.022;5.534;2023-02-15T00:44:38;25.13;;;13.43;;
65045;SDS011;54657;52.022;5.534;2023-02-15T00:47:04;21.25;;;12.43;;
65045;SDS011;54657;52.022;5.534;2023-02-15T00:49:29;22.48;;;13.95;;
65045;SDS011;54657;52.022;5.534;2023-02-15T00:51:55;21.20;;;12.82;;
65045;SDS011;54657;52.022;5.534;2023-02-15T00:54:20;19.98;;;12.98;;
65045;SDS011;54657;52.022;5.534;2023-02-15T00:56:46;22.63;;;13.25;;
65045;SDS011;54657;52.022;5.534;2023-02-15T00:59:11;20.13;;;12.38;;
65045;SDS011;54657;52.022;5.534;2023-02-15T01:01:37;21.77;;;13.35;;
65045;SDS011;54657;52.022;5.534;2023-02-15T01:04:03;22.95;;;12.90;;
65045;SDS011;54657;52.022;5.534;2023-02-15T01:06:29;22.33;;;13.57;;
65045;SDS011;54657;52.022;5.534;2023-02-15T01:08:54;20.38;;;12.93;;
65045;SDS011;54657;52.022;5.534;2023-02-15T01:11:20;22.50;;;13.13;;
65045;SDS011;54657;52.022;5.534;2023-02-15T01:13:50;20.80;;;12.77;;
65045;SDS011;54657;52.022;5.534;2023-02-15T01:16:21;21.27;;;13.48;;
65045;SDS011;54657;52.022;5.534;2023-02-15T01:18:49;20.15;;;12.57;;
65045;SDS011;54657;52.022;5.534;2023-02-15T01:21:15;21.80;;;12.35;;
65045;SDS011;54657;52.022;5.534;2023-02-15T01:23:43;20.30;;;12.32;;
65045;SDS011;54657;52.022;5.534;2023-02-15T01:26:10;21.98;;;13.55;;
65045;SDS011;54657;52.022;5.534;2023-02-15T01:28:36;21.05;;;11.50;;
65045;SDS011;54657;52.022;5.534;2023-02-15T01:31:05;17.98;;;11.63;;
65045;SDS011;54657;52.022;5.534;2023-02-15T01:33:36;24.17;;;12.77;;
65045;SDS011;54657;52.022;5.534;2023-02-15T01:36:02;19.35;;;12.30;;
65045;SDS011;54657;52.022;5.534;2023-02-15T01:38:28;19.23;;;12.30;;
65045;SDS011;54657;52.022;5.534;2023-02-15T01:40:53;16.75;;;11.35;;
65045;SDS011;54657;52.022;5.534;2023-02-15T01:43:43;19.13;;;11.80;;
65045;SDS011;54657;52.022;5.534;2023-02-15T01:46:11;16.50;;;10.98;;
65045;SDS011;54657;52.022;5.534;2023-02-15T01:48:40;17.10;;;11.38;;
65045;SDS011;54657;52.022;5.534;2023-02-15T01:51:12;16.95;;;11.13;;
65045;SDS011;54657;52.022;5.534;2023-02-15T01:53:42;20.48;;;11.40;;
65045;SDS011;54657;52.022;5.534;2023-02-15T01:56:20;17.10;;;11.70;;
65045;SDS011;54657;52.022;5.534;2023-02-15T01:58:49;17.10;;;11.52;;
65045;SDS011;54657;52.022;5.534;2023-02-15T02:01:17;17.20;;;11.82;;
65045;SDS011;54657;52.022;5.534;2023-02-15T02:04:05;20.63;;;11.35;;
65045;SDS011;54657;52.022;5.534;2023-02-15T02:06:53;18.55;;;12.02;;
65045;SDS011;54657;52.022;5.534;2023-02-15T02:09:19;18.02;;;11.50;;
65045;SDS011;54657;52.022;5.534;2023-02-15T02:11:46;18.15;;;11.38;;
65045;SDS011;54657;52.022;5.534;2023-02-15T02:14:12;17.13;;;11.00;;
65045;SDS011;54657;52.022;5.534;2023-02-15T02:16:41;19.02;;;11.55;;
65045;SDS011;54657;52.022;5.534;2023-02-15T02:22:00;21.15;;;12.07;;
65045;SDS011;54657;52.022;5.534;2023-02-15T02:25:05;18.92;;;11.35;;
65045;SDS011;54657;52.022;5.534;2023-02-15T02:36:16;21.65;;;12.48;;
65045;SDS011;54657;52.022;5.534;2023-02-15T02:38:52;21.27;;;12.75;;
65045;SDS011;54657;52.022;5.534;2023-02-15T02:49:37;24.38;;;13.23;;
65045;SDS011;54657;52.022;5.534;2023-02-15T02:52:06;23.38;;;13.15;;
65045;SDS011;54657;52.022;5.534;2023-02-15T02:54:52;20.17;;;13.18;;
65045;SDS011;54657;52.022;5.534;2023-02-15T02:57:19;23.33;;;14.05;;
65045;SDS011;54657;52.022;5.534;2023-02-15T02:59:48;23.15;;;12.90;;
65045;SDS011;54657;52.022;5.534;2023-02-15T03:02:24;19.77;;;12.90;;
65045;SDS011;54657;52.022;5.534;2023-02-15T03:04:56;22.77;;;13.38;;
65045;SDS011;54657;52.022;5.534;2023-02-15T03:07:28;24.30;;;13.88;;
65045;SDS011;54657;52.022;5.534;2023-02-15T03:09:56;22.42;;;14.35;;
65045;SDS011;54657;52.022;5.534;2023-02-15T03:12:24;20.98;;;13.60;;
65045;SDS011;54657;52.022;5.534;2023-02-15T03:15:13;24.65;;;14.68;;
65045;SDS011;54657;52.022;5.534;2023-02-15T03:17:44;27.13;;;14.55;;
65045;SDS011;54657;52.022;5.534;2023-02-15T03:20:33;20.77;;;14.20;;
65045;SDS011;54657;52.022;5.534;2023-02-15T03:23:07;25.05;;;13.68;;
65045;SDS011;54657;52.022;5.534;2023-02-15T03:25:40;21.35;;;13.13;;
65045;SDS011;54657;52.022;5.534;2023-02-15T03:28:09;20.60;;;13.52;;
65045;SDS011;54657;52.022;5.534;2023-02-15T03:30:39;24.85;;;13.30;;
65045;SDS011;54657;52.022;5.534;2023-02-15T03:33:07;23.85;;;13.90;;
65045;SDS011;54657;52.022;5.534;2023-02-15T03:35:36;22.50;;;13.15;;
65045;SDS011;54657;52.022;5.534;2023-02-15T03:38:09;27.20;;;13.77;;
65045;SDS011;54657;52.022;5.534;2023-02-15T03:40:38;24.08;;;14.02;;
65045;SDS011;54657;52.022;5.534;2023-02-15T03:49:04;22.60;;;14.35;;
65045;SDS011;54657;52.022;5.534;2023-02-15T03:51:37;24.10;;;14.20;;
65045;SDS011;54657;52.022;5.534;2023-02-15T03:54:07;23.67;;;15.00;;
65045;SDS011;54657;52.022;5.534;2023-02-15T03:56:36;26.02;;;13.77;;
65045;SDS011;54657;52.022;5.534;2023-02-15T03:59:03;21.52;;;13.18;;
65045;SDS011;54657;52.022;5.534;2023-02-15T04:02:04;22.80;;;14.00;;
65045;SDS011;54657;52.022;5.534;2023-02-15T04:04:49;24.63;;;13.23;;
65045;SDS011;54657;52.022;5.534;2023-02-15T04:07:14;27.48;;;14.40;;
65045;SDS011;54657;52.022;5.534;2023-02-15T04:09:40;21.88;;;13.80;;
65045;SDS011;54657;52.022;5.534;2023-02-15T04:12:24;25.60;;;13.82;;
65045;SDS011;54657;52.022;5.534;2023-02-15T04:14:49;22.58;;;13.50;;
65045;SDS011;54657;52.022;5.534;2023-02-15T04:17:35;22.58;;;13.50;;
65045;SDS011;54657;52.022;5.534;2023-02-15T04:20:01;21.02;;;12.98;;
65045;SDS011;54657;52.022;5.534;2023-02-15T04:22:45;20.60;;;13.90;;
65045;SDS011;54657;52.022;5.534;2023-02-15T04:25:29;22.98;;;13.95;;
65045;SDS011;54657;52.022;5.534;2023-02-15T04:27:55;20.58;;;13.27;;
65045;SDS011;54657;52.022;5.534;2023-02-15T04:30:22;22.52;;;12.65;;
65045;SDS011;54657;52.022;5.534;2023-02-15T04:32:49;23.45;;;13.68;;
65045;SDS011;54657;52.022;5.534;2023-02-15T04:35:15;23.05;;;13.38;;
65045;SDS011;54657;52.022;5.534;2023-02-15T04:37:42;19.42;;;13.18;;
65045;SDS011;54657;52.022;5.534;2023-02-15T04:40:08;19.65;;;12.60;;
65045;SDS011;54657;52.022;5.534;2023-02-15T04:42:37;22.17;;;12.70;;
65045;SDS011;54657;52.022;5.534;2023-02-15T04:45:03;20.38;;;13.07;;
65045;SDS011;54657;52.022;5.534;2023-02-15T04:47:29;18.55;;;11.82;;
65045;SDS011;54657;52.022;5.534;2023-02-15T04:49:55;20.58;;;13.00;;
65045;SDS011;54657;52.022;5.534;2023-02-15T04:52:21;22.30;;;13.05;;
65045;SDS011;54657;52.022;5.534;2023-02-15T04:54:46;18.88;;;12.07;;
65045;SDS011;54657;52.022;5.534;2023-02-15T04:57:12;20.27;;;12.85;;
65045;SDS011;54657;52.022;5.534;2023-02-15T04:59:38;18.42;;;12.15;;
65045;SDS011;54657;52.022;5.534;2023-02-15T05:02:04;17.33;;;12.13;;
65045;SDS011;54657;52.022;5.534;2023-02-15T05:04:29;20.02;;;11.82;;
65045;SDS011;54657;52.022;5.534;2023-02-15T05:06:55;21.48;;;13.23;;
65045;SDS011;54657;52.022;5.534;2023-02-15T05:09:20;20.20;;;12.50;;
65045;SDS011;54657;52.022;5.534;2023-02-15T05:11:46;19.60;;;12.63;;
65045;SDS011;54657;52.022;5.534;2023-02-15T05:14:12;22.15;;;12.82;;
65045;SDS011;54657;52.022;5.534;2023-02-15T05:16:37;20.38;;;12.65;;
65045;SDS011;54657;52.022;5.534;2023-02-15T05:19:03;21.15;;;12.75;;
65045;SDS011;54657;52.022;5.534;2023-02-15T05:21:29;22.75;;;12.60;;
65045;SDS011;54657;52.022;5.534;2023-02-15T05:23:54;20.33;;;12.38;;
65045;SDS011;54657;52.022;5.534;2023-02-15T05:26:21;18.67;;;11.65;;
65045;SDS011;54657;52.022;5.534;2023-02-15T05:29:07;19.80;;;12.18;;
65045;SDS011;54657;52.022;5.534;2023-02-15T05:31:33;21.65;;;12.40;;
65045;SDS011;54657;52.022;5.534;2023-02-15T05:33:59;19.25;;;12.00;;
65045;SDS011;54657;52.022;5.534;2023-02-15T05:36:25;21.15;;;12.50;;
65045;SDS011;54657;52.022;5.534;2023-02-15T05:38:51;20.95;;;13.20;;
65045;SDS011;54657;52.022;5.534;2023-02-15T05:41:16;23.25;;;12.43;;
65045;SDS011;54657;52.022;5.534;2023-02-15T05:43:42;17.45;;;11.80;;
65045;SDS011;54657;52.022;5.534;2023-02-15T05:46:08;19.02;;;11.70;;
65045;SDS011;54657;52.022;5.534;2023-02-15T05:48:34;18.77;;;12.05;;
65045;SDS011;54657;52.022;5.534;2023-02-15T05:51:03;22.38;;;12.27;;
65045;SDS011;54657;52.022;5.534;2023-02-15T05:53:31;23.92;;;13.10;;
65045;SDS011;54657;52.022;5.534;2023-02-15T05:55:58;21.73;;;12.13;;
65045;SDS011;54657;52.022;5.534;2023-02-15T05:58:27;19.67;;;12.63;;
65045;SDS011;54657;52.022;5.534;2023-02-15T06:00:54;21.45;;;12.05;;
65045;SDS011;54657;52.022;5.534;2023-02-15T06:03:22;21.85;;;11.73;;
65045;SDS011;54657;52.022;5.534;2023-02-15T06:05:50;18.33;;;12.20;;
65045;SDS011;54657;52.022;5.534;2023-02-15T06:08:16;22.20;;;12.80;;
65045;SDS011;54657;52.022;5.534;2023-02-15T06:10:42;21.30;;;12.95;;
65045;SDS011;54657;52.022;5.534;2023-02-15T06:13:08;20.10;;;12.38;;
65045;SDS011;54657;52.022;5.534;2023-02-15T06:15:34;19.33;;;12.10;;
65045;SDS011;54657;52.022;5.534;2023-02-15T06:17:59;17.77;;;11.75;;
65045;SDS011;54657;52.022;5.534;2023-02-15T06:20:25;19.17;;;12.50;;
65045;SDS011;54657;52.022;5.534;2023-02-15T06:22:50;20.42;;;11.77;;
65045;SDS011;54657;52.022;5.534;2023-02-15T06:25:16;20.58;;;12.02;;
65045;SDS011;54657;52.022;5.534;2023-02-15T06:27:42;21.40;;;12.88;;
65045;SDS011;54657;52.022;5.534;2023-02-15T06:30:08;20.70;;;12.95;;
65045;SDS011;54657;52.022;5.534;2023-02-15T06:32:34;21.10;;;12.43;;
65045;SDS011;54657;52.022;5.534;2023-02-15T06:35:00;22.35;;;12.85;;
65045;SDS011;54657;52.022;5.534;2023-02-15T06:37:25;20.35;;;12.18;;
65045;SDS011;54657;52.022;5.534;2023-02-15T06:39:51;21.13;;;12.48;;
65045;SDS011;54657;52.022;5.534;2023-02-15T06:42:17;21.05;;;12.18;;
65045;SDS011;54657;52.022;5.534;2023-02-15T06:44:43;21.33;;;12.23;;
65045;SDS011;54657;52.022;5.534;2023-02-15T06:47:09;19.95;;;12.43;;
65045;SDS011;54657;52.022;5.534;2023-02-15T06:49:35;18.92;;;12.25;;
65045;SDS011;54657;52.022;5.534;2023-02-15T06:52:01;20.50;;;12.43;;
65045;SDS011;54657;52.022;5.534;2023-02-15T06:54:27;21.20;;;12.52;;
65045;SDS011;54657;52.022;5.534;2023-02-15T06:56:53;19.50;;;12.95;;
65045;SDS011;54657;52.022;5.534;2023-02-15T06:59:19;21.67;;;12.32;;
65045;SDS011;54657;52.022;5.534;2023-02-15T07:01:44;23.73;;;13.23;;
65045;SDS011;54657;52.022;5.534;2023-02-15T07:04:10;20.70;;;12.98;;
65045;SDS011;54657;52.022;5.534;2023-02-15T07:06:35;21.98;;;14.10;;
65045;SDS011;54657;52.022;5.534;2023-02-15T07:09:01;25.35;;;13.73;;
65045;SDS011;54657;52.022;5.534;2023-02-15T07:11:27;23.73;;;13.00;;
65045;SDS011;54657;52.022;5.534;2023-02-15T07:14:11;24.25;;;13.20;;
65045;SDS011;54657;52.022;5.534;2023-02-15T07:16:37;21.98;;;13.27;;
65045;SDS011;54657;52.022;5.534;2023-02-15T07:19:03;22.60;;;13.48;;
65045;SDS011;54657;52.022;5.534;2023-02-15T07:21:28;22.10;;;12.45;;
65045;SDS011;54657;52.022;5.534;2023-02-15T07:23:57;23.10;;;13.32;;
65045;SDS011;54657;52.022;5.534;2023-02-15T07:26:23;24.02;;;14.25;;
65045;SDS011;54657;52.022;5.534;2023-02-15T07:28:49;24.88;;;13.93;;
65045;SDS011;54657;52.022;5.534;2023-02-15T07:31:14;25.95;;;14.15;;
65045;SDS011;54657;52.022;5.534;2023-02-15T07:33:40;27.05;;;14.45;;
65045;SDS011;54657;52.022;5.534;2023-02-15T07:36:06;25.60;;;14.40;;
65045;SDS011;54657;52.022;5.534;2023-02-15T07:38:35;22.25;;;13.90;;
65045;SDS011;54657;52.022;5.534;2023-02-15T07:41:03;25.38;;;14.45;;
65045;SDS011;54657;52.022;5.534;2023-02-15T07:43:34;24.33;;;15.18;;
65045;SDS011;54657;52.022;5.534;2023-02-15T07:46:04;25.38;;;14.13;;
65045;SDS011;54657;52.022;5.534;2023-02-15T07:48:32;24.40;;;13.95;;
65045;SDS011;54657;52.022;5.534;2023-02-15T07:50:59;23.35;;;13.98;;
65045;SDS011;54657;52.022;5.534;2023-02-15T07:53:25;28.52;;;15.18;;
65045;SDS011;54657;52.022;5.534;2023-02-15T07:55:51;26.50;;;14.27;;
65045;SDS011;54657;52.022;5.534;2023-02-15T07:58:17;26.98;;;15.50;;
65045;SDS011;54657;52.022;5.534;2023-02-15T08:00:43;26.90;;;14.63;;
65045;SDS011;54657;52.022;5.534;2023-02-15T08:03:26;25.92;;;14.57;;
65045;SDS011;54657;52.022;5.534;2023-02-15T08:05:57;24.58;;;14.65;;
65045;SDS011;54657;52.022;5.534;2023-02-15T08:08:30;26.13;;;15.80;;
65045;SDS011;54657;52.022;5.534;2023-02-15T08:16:39;29.58;;;15.20;;
65045;SDS011;54657;52.022;5.534;2023-02-15T08:21:45;26.85;;;15.60;;
65045;SDS011;54657;52.022;5.534;2023-02-15T08:24:22;23.90;;;15.80;;
65045;SDS011;54657;52.022;5.534;2023-02-15T08:26:49;27.40;;;15.55;;
65045;SDS011;54657;52.022;5.534;2023-02-15T08:29:16;31.23;;;16.25;;
65045;SDS011;54657;52.022;5.534;2023-02-15T08:31:43;29.88;;;16.98;;
65045;SDS011;54657;52.022;5.534;2023-02-15T08:34:09;28.00;;;15.25;;
65045;SDS011;54657;52.022;5.534;2023-02-15T08:36:36;27.67;;;16.23;;
65045;SDS011;54657;52.022;5.534;2023-02-15T08:39:04;25.10;;;15.73;;
65045;SDS011;54657;52.022;5.534;2023-02-15T08:41:31;29.23;;;16.55;;
65045;SDS011;54657;52.022;5.534;2023-02-15T08:44:02;26.67;;;16.35;;
65045;SDS011;54657;52.022;5.534;2023-02-15T08:46:30;29.40;;;16.50;;
65045;SDS011;54657;52.022;5.534;2023-02-15T08:48:58;28.67;;;17.05;;
65045;SDS011;54657;52.022;5.534;2023-02-15T08:51:24;31.95;;;17.35;;
65045;SDS011;54657;52.022;5.534;2023-02-15T08:53:53;27.65;;;16.40;;
65045;SDS011;54657;52.022;5.534;2023-02-15T08:56:23;28.90;;;16.50;;
65045;SDS011;54657;52.022;5.534;2023-02-15T08:58:54;31.13;;;17.52;;
65045;SDS011;54657;52.022;5.534;2023-02-15T09:01:21;27.83;;;16.30;;
65045;SDS011;54657;52.022;5.534;2023-02-15T09:03:49;25.35;;;16.10;;
65045;SDS011;54657;52.022;5.534;2023-02-15T09:06:17;28.13;;;17.63;;
65045;SDS011;54657;52.022;5.534;2023-02-15T09:08:43;32.72;;;18.92;;
65045;SDS011;54657;52.022;5.534;2023-02-15T09:11:16;30.60;;;17.50;;
65045;SDS011;54657;52.022;5.534;2023-02-15T09:13:49;29.35;;;18.15;;
65045;SDS011;54657;52.022;5.534;2023-02-15T09:16:16;32.95;;;18.48;;
65045;SDS011;54657;52.022;5.534;2023-02-15T09:18:42;29.73;;;18.20;;
65045;SDS011;54657;52.022;5.534;2023-02-15T09:21:15;33.05;;;17.35;;
65045;SDS011;54657;52.022;5.534;2023-02-15T09:23:43;28.13;;;17.13;;
65045;SDS011;54657;52.022;5.534;2023-02-15T09:26:13;30.50;;;18.67;;
65045;SDS011;54657;52.022;5.534;2023-02-15T09:28:44;34.05;;;18.60;;
65045;SDS011;54657;52.022;5.534;2023-02-15T09:31:15;28.55;;;17.05;;
65045;SDS011;54657;52.022;5.534;2023-02-15T09:33:43;30.20;;;18.63;;
65045;SDS011;54657;52.022;5.534;2023-02-15T09:36:30;26.92;;;18.15;;
65045;SDS011;54657;52.022;5.534;2023-02-15T09:38:58;31.48;;;17.70;;
65045;SDS011;54657;52.022;5.534;2023-02-15T09:44:45;30.50;;;18.05;;
65045;SDS011;54657;52.022;5.534;2023-02-15T10:06:44;28.92;;;17.67;;
65045;SDS011;54657;52.022;5.534;2023-02-15T10:18:07;30.27;;;19.10;;
65045;SDS011;54657;52.022;5.534;2023-02-15T10:20:52;33.78;;;19.00;;
65045;SDS011;54657;52.022;5.534;2023-02-15T10:23:41;32.20;;;19.73;;
65045;SDS011;54657;52.022;5.534;2023-02-15T10:26:28;30.83;;;18.45;;
65045;SDS011;54657;52.022;5.534;2023-02-15T10:29:12;33.00;;;18.75;;
65045;SDS011;54657;52.022;5.534;2023-02-15T10:31:47;27.20;;;17.38;;
65045;SDS011;54657;52.022;5.534;2023-02-15T10:34:19;31.27;;;19.08;;
65045;SDS011;54657;52.022;5.534;2023-02-15T10:45:27;28.63;;;18.30;;
65045;SDS011;54657;52.022;5.534;2023-02-15T10:56:25;32.17;;;19.13;;
65045;SDS011;54657;52.022;5.534;2023-02-15T11:01:53;29.58;;;18.58;;
65045;SDS011;54657;52.022;5.534;2023-02-15T11:04:40;31.27;;;18.25;;
65045;SDS011;54657;52.022;5.534;2023-02-15T11:07:22;31.23;;;19.63;;
65045;SDS011;54657;52.022;5.534;2023-02-15T11:09:51;29.17;;;19.25;;
65045;SDS011;54657;52.022;5.534;2023-02-15T11:12:26;30.48;;;18.55;;
65045;SDS011;54657;52.022;5.534;2023-02-15T11:15:28;32.03;;;19.40;;
65045;SDS011;54657;52.022;5.534;2023-02-15T11:17:55;33.53;;;20.67;;
65045;SDS011;54657;52.022;5.534;2023-02-15T11:20:42;27.02;;;18.80;;
65045;SDS011;54657;52.022;5.534;2023-02-15T11:23:13;30.60;;;18.70;;
65045;SDS011;54657;52.022;5.534;2023-02-15T11:25:41;33.20;;;18.42;;
65045;SDS011;54657;52.022;5.534;2023-02-15T11:28:14;30.73;;;18.85;;
65045;SDS011;54657;52.022;5.534;2023-02-15T11:30:51;29.70;;;18.52;;
65045;SDS011;54657;52.022;5.534;2023-02-15T11:33:31;32.60;;;20.05;;
65045;SDS011;54657;52.022;5.534;2023-02-15T11:36:10;31.92;;;18.98;;
65045;SDS011;54657;52.022;5.534;2023-02-15T11:38:42;33.85;;;19.48;;
65045;SDS011;54657;52.022;5.534;2023-02-15T11:41:13;32.20;;;18.92;;
65045;SDS011;54657;52.022;5.534;2023-02-15T11:43:54;30.92;;;18.98;;
65045;SDS011;54657;52.022;5.534;2023-02-15T11:46:22;32.55;;;19.35;;
65045;SDS011;54657;52.022;5.534;2023-02-15T11:48:48;32.70;;;20.92;;
65045;SDS011;54657;52.022;5.534;2023-02-15T11:51:15;34.25;;;19.38;;
65045;SDS011;54657;52.022;5.534;2023-02-15T11:53:46;30.40;;;18.88;;
65045;SDS011;54657;52.022;5.534;2023-02-15T11:56:45;34.58;;;19.52;;
65045;SDS011;54657;52.022;5.534;2023-02-15T11:59:04;33.20;;;19.38;;
65045;SDS011;54657;52.022;5.534;2023-02-15T12:01:45;30.77;;;19.80;;
65045;SDS011;54657;52.022;5.534;2023-02-15T12:04:32;33.80;;;20.85;;
65045;SDS011;54657;52.022;5.534;2023-02-15T12:09:46;33.40;;;19.77;;
65045;SDS011;54657;52.022;5.534;2023-02-15T12:14:46;33.05;;;19.10;;
65045;SDS011;54657;52.022;5.534;2023-02-15T12:17:13;32.40;;;19.48;;
65045;SDS011;54657;52.022;5.534;2023-02-15T12:19:40;36.30;;;20.42;;
65045;SDS011;54657;52.022;5.534;2023-02-15T12:22:11;32.15;;;20.25;;
65045;SDS011;54657;52.022;5.534;2023-02-15T12:24:48;29.57;;;19.60;;
65045;SDS011;54657;52.022;5.534;2023-02-15T12:27:17;34.20;;;21.20;;
65045;SDS011;54657;52.022;5.534;2023-02-15T12:32:16;34.03;;;21.23;;
65045;SDS011;54657;52.022;5.534;2023-02-15T12:35:16;34.40;;;20.63;;
65045;SDS011;54657;52.022;5.534;2023-02-15T12:44:02;30.05;;;20.40;;
65045;SDS011;54657;52.022;5.534;2023-02-15T12:46:30;33.00;;;20.17;;
65045;SDS011;54657;52.022;5.534;2023-02-15T12:57:01;35.35;;;21.55;;
65045;SDS011;54657;52.022;5.534;2023-02-15T13:05:14;31.80;;;20.75;;
65045;SDS011;54657;52.022;5.534;2023-02-15T13:07:47;33.28;;;21.55;;
65045;SDS011;54657;52.022;5.534;2023-02-15T13:10:23;32.30;;;20.77;;
65045;SDS011;54657;52.022;5.534;2023-02-15T13:12:50;38.17;;;22.88;;
65045;SDS011;54657;52.022;5.534;2023-02-15T13:15:35;36.53;;;22.08;;
65045;SDS011;54657;52.022;5.534;2023-02-15T13:18:04;34.55;;;21.40;;
65045;SDS011;54657;52.022;5.534;2023-02-15T13:20:35;34.88;;;21.27;;
65045;SDS011;54657;52.022;5.534;2023-02-15T13:23:06;31.92;;;20.58;;
65045;SDS011;54657;52.022;5.534;2023-02-15T13:25:44;33.40;;;20.88;;
65045;SDS011;54657;52.022;5.534;2023-02-15T13:28:15;34.15;;;20.58;;
65045;SDS011;54657;52.022;5.534;2023-02-15T13:30:44;34.08;;;21.73;;
65045;SDS011;54657;52.022;5.534;2023-02-15T13:46:32;35.28;;;21.00;;
65045;SDS011;54657;52.022;5.534;2023-02-15T13:52:05;40.45;;;22.73;;
65045;SDS011;54657;52.022;5.534;2023-02-15T13:54:42;35.38;;;21.50;;
65045;SDS011;54657;52.022;5.534;2023-02-15T14:08:46;38.65;;;22.58;;
65045;SDS011;54657;52.022;5.534;2023-02-15T14:11:38;36.95;;;22.75;;
65045;SDS011;54657;52.022;5.534;2023-02-15T14:19:48;37.53;;;23.33;;
65045;SDS011;54657;52.022;5.534;2023-02-15T14:22:35;38.88;;;22.80;;
65045;SDS011;54657;52.022;5.534;2023-02-15T14:25:17;35.42;;;22.35;;
65045;SDS011;54657;52.022;5.534;2023-02-15T14:27:59;37.28;;;22.52;;
65045;SDS011;54657;52.022;5.534;2023-02-15T14:30:41;34.90;;;22.30;;
65045;SDS011;54657;52.022;5.534;2023-02-15T14:35:56;37.58;;;22.50;;
65045;SDS011;54657;52.022;5.534;2023-02-15T14:38:33;34.38;;;22.27;;
65045;SDS011;54657;52.022;5.534;2023-02-15T14:41:07;35.85;;;22.00;;
65045;SDS011;54657;52.022;5.534;2023-02-15T14:46:25;38.22;;;23.35;;
65045;SDS011;54657;52.022;5.534;2023-02-15T14:49:12;33.75;;;22.92;;
65045;SDS011;54657;52.022;5.534;2023-02-15T14:54:54;36.40;;;22.50;;
65045;SDS011;54657;52.022;5.534;2023-02-15T14:59:43;42.85;;;24.05;;
65045;SDS011;54657;52.022;5.534;2023-02-15T15:08:00;37.90;;;22.67;;
65045;SDS011;54657;52.022;5.534;2023-02-15T15:10:41;36.90;;;22.95;;
65045;SDS011;54657;52.022;5.534;2023-02-15T15:15:56;34.20;;;22.10;;
65045;SDS011;54657;52.022;5.534;2023-02-15T15:21:09;40.28;;;24.02;;
65045;SDS011;54657;52.022;5.534;2023-02-15T15:23:40;38.90;;;22.63;;
65045;SDS011;54657;52.022;5.534;2023-02-15T15:26:31;37.47;;;23.80;;
65045;SDS011;54657;52.022;5.534;2023-02-15T15:29:01;38.38;;;23.02;;
65045;SDS011;54657;52.022;5.534;2023-02-15T15:31:30;36.80;;;23.05;;
65045;SDS011;54657;52.022;5.534;2023-02-15T15:34:24;36.38;;;24.08;;
65045;SDS011;54657;52.022;5.534;2023-02-15T15:37:10;35.13;;;22.90;;
65045;SDS011;54657;52.022;5.534;2023-02-15T15:50:53;41.70;;;23.10;;
65045;SDS011;54657;52.022;5.534;2023-02-15T15:53:27;40.95;;;24.88;;
65045;SDS011;54657;52.022;5.534;2023-02-15T15:56:06;41.50;;;23.55;;
65045;SDS011;54657;52.022;5.534;2023-02-15T15:58:40;38.47;;;24.02;;
65045;SDS011;54657;52.022;5.534;2023-02-15T16:01:11;36.92;;;23.02;;
65045;SDS011;54657;52.022;5.534;2023-02-15T16:03:38;38.85;;;22.15;;
65045;SDS011;54657;52.022;5.534;2023-02-15T16:06:25;37.83;;;22.83;;
65045;SDS011;54657;52.022;5.534;2023-02-15T16:08:54;40.15;;;23.65;;
65045;SDS011;54657;52.022;5.534;2023-02-15T16:11:27;33.90;;;22.55;;
65045;SDS011;54657;52.022;5.534;2023-02-15T16:13:54;33.70;;;21.48;;
65045;SDS011;54657;52.022;5.534;2023-02-15T16:16:21;34.00;;;21.60;;
65045;SDS011;54657;52.022;5.534;2023-02-15T16:18:49;38.08;;;23.38;;
65045;SDS011;54657;52.022;5.534;2023-02-15T16:21:17;33.85;;;21.98;;
65045;SDS011;54657;52.022;5.534;2023-02-15T16:24:06;39.25;;;23.75;;
65045;SDS011;54657;52.022;5.534;2023-02-15T16:27:01;37.33;;;21.48;;
65045;SDS011;54657;52.022;5.534;2023-02-15T16:29:42;35.53;;;21.85;;
65045;SDS011;54657;52.022;5.534;2023-02-15T16:32:20;34.53;;;21.52;;
65045;SDS011;54657;52.022;5.534;2023-02-15T16:35:00;34.70;;;21.27;;
65045;SDS011;54657;52.022;5.534;2023-02-15T16:37:30;32.25;;;20.17;;
65045;SDS011;54657;52.022;5.534;2023-02-15T16:39:58;35.35;;;22.27;;
65045;SDS011;54657;52.022;5.534;2023-02-15T16:42:24;35.30;;;22.15;;
65045;SDS011;54657;52.022;5.534;2023-02-15T16:44:51;35.53;;;21.05;;
65045;SDS011;54657;52.022;5.534;2023-02-15T16:47:24;33.78;;;20.70;;
65045;SDS011;54657;52.022;5.534;2023-02-15T16:49:53;35.83;;;22.17;;
65045;SDS011;54657;52.022;5.534;2023-02-15T16:52:23;36.15;;;22.85;;
65045;SDS011;54657;52.022;5.534;2023-02-15T16:54:54;38.15;;;22.55;;
65045;SDS011;54657;52.022;5.534;2023-02-15T16:57:23;40.85;;;24.58;;
65045;SDS011;54657;52.022;5.534;2023-02-15T16:59:56;40.83;;;23.70;;
65045;SDS011;54657;52.022;5.534;2023-02-15T17:02:30;50.90;;;27.90;;
65045;SDS011;54657;52.022;5.534;2023-02-15T17:05:02;69.75;;;36.75;;
65045;SDS011;54657;52.022;5.534;2023-02-15T17:07:30;60.78;;;31.00;;
65045;SDS011;54657;52.022;5.534;2023-02-15T17:09:59;51.33;;;28.70;;
65045;SDS011;54657;52.022;5.534;2023-02-15T17:12:44;42.63;;;25.00;;
65045;SDS011;54657;52.022;5.534;2023-02-15T17:15:29;39.70;;;22.60;;
65045;SDS011;54657;52.022;5.534;2023-02-15T17:18:00;37.80;;;22.20;;
65045;SDS011;54657;52.022;5.534;2023-02-15T17:20:35;34.58;;;21.23;;
65045;SDS011;54657;52.022;5.534;2023-02-15T17:23:03;36.17;;;23.02;;
65045;SDS011;54657;52.022;5.534;2023-02-15T17:25:39;36.95;;;22.95;;
65045;SDS011;54657;52.022;5.534;2023-02-15T17:28:15;36.85;;;22.40;;
65045;SDS011;54657;52.022;5.534;2023-02-15T17:30:46;41.10;;;22.65;;
65045;SDS011;54657;52.022;5.534;2023-02-15T17:36:06;39.30;;;22.00;;
65045;SDS011;54657;52.022;5.534;2023-02-15T17:41:30;35.38;;;22.27;;
65045;SDS011;54657;52.022;5.534;2023-02-15T17:43:58;34.08;;;21.30;;
65045;SDS011;54657;52.022;5.534;2023-02-15T17:46:23;35.08;;;22.02;;
65045;SDS011;54657;52.022;5.534;2023-02-15T17:48:51;34.00;;;21.92;;